sensor_id;sensor_type;location;lat;lon;timestamp;temperature;humidity
69436;SHT31;56625;54.322;18.582;2022-10-31T00:01:23;9.19;86.84
69436;SHT31;56625;54.322;18.582;2022-10-31T00:03:53;9.21;86.87
69436;SHT31;56625;54.322;18.582;2022-10-31T00:06:21;9.23;86.75
69436;SHT31;56625;54.322;18.582;2022-10-31T00:08:52;9.20;86.55
69436;SHT31;56625;54.322;18.582;2022-10-31T00:11:22;9.24;86.58
69436;SHT31;56625;54.322;18.582;2022-10-31T00:13:49;9.27;86.63
69436;SHT31;56625;54.322;18.582;2022-10-31T00:16:16;9.27;86.73
69436;SHT31;56625;54.322;18.582;2022-10-31T00:18:49;9.26;86.75
69436;SHT31;56625;54.322;18.582;2022-10-31T00:21:17;9.27;86.83
69436;SHT31;56625;54.322;18.582;2022-10-31T00:23:44;9.28;86.96
69436;SHT31;56625;54.322;18.582;2022-10-31T00:26:10;9.30;87.20
69436;SHT31;56625;54.322;18.582;2022-10-31T00:28:36;9.33;87.36
69436;SHT31;56625;54.322;18.582;2022-10-31T00:31:04;9.30;87.06
69436;SHT31;56625;54.322;18.582;2022-10-31T00:33:35;9.30;86.95
69436;SHT31;56625;54.322;18.582;2022-10-31T00:36:04;9.30;86.80
69436;SHT31;56625;54.322;18.582;2022-10-31T00:38:33;9.33;86.68
69436;SHT31;56625;54.322;18.582;2022-10-31T00:40:59;9.38;86.89
69436;SHT31;56625;54.322;18.582;2022-10-31T00:43:26;9.41;86.93
69436;SHT31;56625;54.322;18.582;2022-10-31T00:45:52;9.44;87.06
69436;SHT31;56625;54.322;18.582;2022-10-31T00:48:19;9.43;86.70
69436;SHT31;56625;54.322;18.582;2022-10-31T00:50:45;9.31;85.96
69436;SHT31;56625;54.322;18.582;2022-10-31T00:53:12;9.19;86.07
69436;SHT31;56625;54.322;18.582;2022-10-31T00:55:38;9.12;86.44
69436;SHT31;56625;54.322;18.582;2022-10-31T00:58:04;9.08;86.76
69436;SHT31;56625;54.322;18.582;2022-10-31T01:00:31;9.06;87.01
69436;SHT31;56625;54.322;18.582;2022-10-31T01:02:57;9.09;87.50
69436;SHT31;56625;54.322;18.582;2022-10-31T01:05:24;9.10;87.70
69436;SHT31;56625;54.322;18.582;2022-10-31T01:07:51;9.10;87.58
69436;SHT31;56625;54.322;18.582;2022-10-31T01:10:17;9.09;87.58
69436;SHT31;56625;54.322;18.582;2022-10-31T01:12:45;9.08;87.51
69436;SHT31;56625;54.322;18.582;2022-10-31T01:15:15;9.08;87.60
69436;SHT31;56625;54.322;18.582;2022-10-31T01:17:48;9.05;87.56
69436;SHT31;56625;54.322;18.582;2022-10-31T01:20:15;8.97;87.66
69436;SHT31;56625;54.322;18.582;2022-10-31T01:22:42;8.95;87.95
69436;SHT31;56625;54.322;18.582;2022-10-31T01:25:09;8.97;88.18
69436;SHT31;56625;54.322;18.582;2022-10-31T01:27:36;9.02;88.46
69436;SHT31;56625;54.322;18.582;2022-10-31T01:30:04;9.10;88.98
69436;SHT31;56625;54.322;18.582;2022-10-31T01:32:31;9.23;89.64
69436;SHT31;56625;54.322;18.582;2022-10-31T01:34:58;9.37;90.18
69436;SHT31;56625;54.322;18.582;2022-10-31T01:37:24;9.47;90.39
69436;SHT31;56625;54.322;18.582;2022-10-31T01:39:51;9.59;90.58
69436;SHT31;56625;54.322;18.582;2022-10-31T01:42:18;9.72;90.94
69436;SHT31;56625;54.322;18.582;2022-10-31T01:47:30;10.04;91.21
69436;SHT31;56625;54.322;18.582;2022-10-31T01:50:23;10.22;91.53
69436;SHT31;56625;54.322;18.582;2022-10-31T01:52:57;10.41;91.59
69436;SHT31;56625;54.322;18.582;2022-10-31T01:55:32;10.58;91.57
69436;SHT31;56625;54.322;18.582;2022-10-31T01:58:07;10.74;91.60
69436;SHT31;56625;54.322;18.582;2022-10-31T02:00:39;10.91;91.60
69436;SHT31;56625;54.322;18.582;2022-10-31T02:03:10;11.05;91.56
69436;SHT31;56625;54.322;18.582;2022-10-31T02:05:38;11.03;90.47
69436;SHT31;56625;54.322;18.582;2022-10-31T02:10:57;10.97;89.93
69436;SHT31;56625;54.322;18.582;2022-10-31T02:13:27;11.03;90.04
69436;SHT31;56625;54.322;18.582;2022-10-31T02:15:56;11.03;89.60
69436;SHT31;56625;54.322;18.582;2022-10-31T02:18:26;11.09;89.46
69436;SHT31;56625;54.322;18.582;2022-10-31T02:20:59;11.10;88.88
69436;SHT31;56625;54.322;18.582;2022-10-31T02:30:21;10.81;86.77
69436;SHT31;56625;54.322;18.582;2022-10-31T02:32:59;10.73;86.88
69436;SHT31;56625;54.322;18.582;2022-10-31T02:35:44;10.68;86.95
69436;SHT31;56625;54.322;18.582;2022-10-31T02:38:22;10.66;87.12
69436;SHT31;56625;54.322;18.582;2022-10-31T02:44:08;10.56;86.74
69436;SHT31;56625;54.322;18.582;2022-10-31T02:47:05;10.48;86.79
69436;SHT31;56625;54.322;18.582;2022-10-31T02:49:45;10.43;86.76
69436;SHT31;56625;54.322;18.582;2022-10-31T02:52:33;10.36;86.60
69436;SHT31;56625;54.322;18.582;2022-10-31T02:57:53;10.10;85.96
69436;SHT31;56625;54.322;18.582;2022-10-31T03:00:25;9.99;85.88
69436;SHT31;56625;54.322;18.582;2022-10-31T03:02:59;9.89;85.90
69436;SHT31;56625;54.322;18.582;2022-10-31T03:05:55;9.77;85.76
69436;SHT31;56625;54.322;18.582;2022-10-31T03:08:35;9.70;86.09
69436;SHT31;56625;54.322;18.582;2022-10-31T03:11:16;9.67;86.23
69436;SHT31;56625;54.322;18.582;2022-10-31T03:13:51;9.72;86.50
69436;SHT31;56625;54.322;18.582;2022-10-31T03:16:34;9.76;86.31
69436;SHT31;56625;54.322;18.582;2022-10-31T03:19:16;9.72;85.98
69436;SHT31;56625;54.322;18.582;2022-10-31T03:21:55;9.69;86.17
69436;SHT31;56625;54.322;18.582;2022-10-31T03:24:34;9.74;86.51
69436;SHT31;56625;54.322;18.582;2022-10-31T03:27:05;9.77;86.44
69436;SHT31;56625;54.322;18.582;2022-10-31T03:29:37;9.82;86.41
69436;SHT31;56625;54.322;18.582;2022-10-31T03:32:08;9.86;86.30
69436;SHT31;56625;54.322;18.582;2022-10-31T03:34:47;9.94;86.08
69436;SHT31;56625;54.322;18.582;2022-10-31T03:37:19;9.95;85.68
69436;SHT31;56625;54.322;18.582;2022-10-31T03:39:49;9.94;85.58
69436;SHT31;56625;54.322;18.582;2022-10-31T03:42:18;9.89;85.62
69436;SHT31;56625;54.322;18.582;2022-10-31T03:45:33;9.89;85.80
69436;SHT31;56625;54.322;18.582;2022-10-31T03:47:56;9.85;85.72
69436;SHT31;56625;54.322;18.582;2022-10-31T03:50:27;9.78;85.85
69436;SHT31;56625;54.322;18.582;2022-10-31T03:53:09;9.77;86.25
69436;SHT31;56625;54.322;18.582;2022-10-31T03:55:48;9.79;86.35
69436;SHT31;56625;54.322;18.582;2022-10-31T03:58:27;9.77;86.19
69436;SHT31;56625;54.322;18.582;2022-10-31T04:01:03;9.72;86.16
69436;SHT31;56625;54.322;18.582;2022-10-31T04:03:35;9.63;86.16
69436;SHT31;56625;54.322;18.582;2022-10-31T04:06:06;9.60;86.37
69436;SHT31;56625;54.322;18.582;2022-10-31T04:08:40;9.61;86.64
69436;SHT31;56625;54.322;18.582;2022-10-31T04:11:14;9.63;86.53
69436;SHT31;56625;54.322;18.582;2022-10-31T04:13:45;9.66;86.71
69436;SHT31;56625;54.322;18.582;2022-10-31T04:16:14;9.66;86.60
69436;SHT31;56625;54.322;18.582;2022-10-31T04:18:43;9.71;86.79
69436;SHT31;56625;54.322;18.582;2022-10-31T04:21:10;9.71;86.53
69436;SHT31;56625;54.322;18.582;2022-10-31T04:23:36;9.65;86.41
69436;SHT31;56625;54.322;18.582;2022-10-31T04:26:03;9.58;86.58
69436;SHT31;56625;54.322;18.582;2022-10-31T04:28:30;9.59;86.97
69436;SHT31;56625;54.322;18.582;2022-10-31T04:30:56;9.56;86.84
69436;SHT31;56625;54.322;18.582;2022-10-31T04:33:22;9.57;87.09
69436;SHT31;56625;54.322;18.582;2022-10-31T04:35:49;9.61;87.39
69436;SHT31;56625;54.322;18.582;2022-10-31T04:38:15;9.63;87.17
69436;SHT31;56625;54.322;18.582;2022-10-31T04:40:41;9.69;87.51
69436;SHT31;56625;54.322;18.582;2022-10-31T04:43:08;9.75;87.30
69436;SHT31;56625;54.322;18.582;2022-10-31T04:45:34;9.72;87.02
69436;SHT31;56625;54.322;18.582;2022-10-31T04:48:01;9.76;87.26
69436;SHT31;56625;54.322;18.582;2022-10-31T04:50:28;9.74;87.05
69436;SHT31;56625;54.322;18.582;2022-10-31T04:52:54;9.70;87.20
69436;SHT31;56625;54.322;18.582;2022-10-31T04:55:21;9.64;87.39
69436;SHT31;56625;54.322;18.582;2022-10-31T04:57:48;9.61;87.69
69436;SHT31;56625;54.322;18.582;2022-10-31T05:00:17;9.64;87.91
69436;SHT31;56625;54.322;18.582;2022-10-31T05:02:47;9.67;87.97
69436;SHT31;56625;54.322;18.582;2022-10-31T05:05:17;9.67;88.02
69436;SHT31;56625;54.322;18.582;2022-10-31T05:07:47;9.65;88.23
69436;SHT31;56625;54.322;18.582;2022-10-31T05:10:16;9.67;88.41
69436;SHT31;56625;54.322;18.582;2022-10-31T05:12:50;9.70;88.65
69436;SHT31;56625;54.322;18.582;2022-10-31T05:15:20;9.72;88.89
69436;SHT31;56625;54.322;18.582;2022-10-31T05:17:49;9.76;89.12
69436;SHT31;56625;54.322;18.582;2022-10-31T05:20:17;9.80;89.27
69436;SHT31;56625;54.322;18.582;2022-10-31T05:22:47;9.84;89.47
69436;SHT31;56625;54.322;18.582;2022-10-31T05:25:17;9.86;89.65
69436;SHT31;56625;54.322;18.582;2022-10-31T05:27:47;9.89;89.90
69436;SHT31;56625;54.322;18.582;2022-10-31T05:30:19;9.92;89.97
69436;SHT31;56625;54.322;18.582;2022-10-31T05:32:50;9.95;90.08
69436;SHT31;56625;54.322;18.582;2022-10-31T05:35:19;10.00;90.22
69436;SHT31;56625;54.322;18.582;2022-10-31T05:37:51;10.04;90.52
69436;SHT31;56625;54.322;18.582;2022-10-31T05:40:20;10.09;90.86
69436;SHT31;56625;54.322;18.582;2022-10-31T05:42:50;10.15;91.02
69436;SHT31;56625;54.322;18.582;2022-10-31T05:45:18;10.18;90.98
69436;SHT31;56625;54.322;18.582;2022-10-31T05:47:54;10.24;91.18
69436;SHT31;56625;54.322;18.582;2022-10-31T05:50:27;10.29;91.24
69436;SHT31;56625;54.322;18.582;2022-10-31T05:52:56;10.33;91.47
69436;SHT31;56625;54.322;18.582;2022-10-31T05:55:29;10.39;91.37
69436;SHT31;56625;54.322;18.582;2022-10-31T05:57:57;10.42;91.41
69436;SHT31;56625;54.322;18.582;2022-10-31T06:00:25;10.43;91.37
69436;SHT31;56625;54.322;18.582;2022-10-31T06:02:59;10.47;91.48
69436;SHT31;56625;54.322;18.582;2022-10-31T06:05:28;10.47;91.59
69436;SHT31;56625;54.322;18.582;2022-10-31T06:07:56;10.50;91.46
69436;SHT31;56625;54.322;18.582;2022-10-31T06:10:24;10.55;91.46
69436;SHT31;56625;54.322;18.582;2022-10-31T06:12:51;10.58;91.47
69436;SHT31;56625;54.322;18.582;2022-10-31T06:15:18;10.60;91.48
69436;SHT31;56625;54.322;18.582;2022-10-31T06:18:00;10.63;91.43
69436;SHT31;56625;54.322;18.582;2022-10-31T06:20:30;10.67;91.42
69436;SHT31;56625;54.322;18.582;2022-10-31T06:22:57;10.77;91.56
69436;SHT31;56625;54.322;18.582;2022-10-31T06:25:24;10.82;91.33
69436;SHT31;56625;54.322;18.582;2022-10-31T06:27:51;10.84;91.17
69436;SHT31;56625;54.322;18.582;2022-10-31T06:30:17;10.87;91.06
69436;SHT31;56625;54.322;18.582;2022-10-31T06:32:44;10.89;90.95
69436;SHT31;56625;54.322;18.582;2022-10-31T06:35:10;10.92;91.00
69436;SHT31;56625;54.322;18.582;2022-10-31T06:37:37;11.02;91.14
69436;SHT31;56625;54.322;18.582;2022-10-31T06:40:04;11.11;91.17
69436;SHT31;56625;54.322;18.582;2022-10-31T06:42:31;11.19;91.00
69436;SHT31;56625;54.322;18.582;2022-10-31T06:44:57;11.27;90.80
69436;SHT31;56625;54.322;18.582;2022-10-31T06:47:24;11.35;90.79
69436;SHT31;56625;54.322;18.582;2022-10-31T06:49:50;11.41;90.49
69436;SHT31;56625;54.322;18.582;2022-10-31T06:52:16;11.51;90.38
69436;SHT31;56625;54.322;18.582;2022-10-31T06:54:43;11.61;90.16
69436;SHT31;56625;54.322;18.582;2022-10-31T06:57:09;11.65;89.72
69436;SHT31;56625;54.322;18.582;2022-10-31T06:59:36;11.62;89.32
69436;SHT31;56625;54.322;18.582;2022-10-31T07:02:04;11.60;89.38
69436;SHT31;56625;54.322;18.582;2022-10-31T07:04:31;11.58;89.36
69436;SHT31;56625;54.322;18.582;2022-10-31T07:06:57;11.59;89.43
69436;SHT31;56625;54.322;18.582;2022-10-31T07:09:24;11.58;89.51
69436;SHT31;56625;54.322;18.582;2022-10-31T07:11:54;11.59;89.63
69436;SHT31;56625;54.322;18.582;2022-10-31T07:14:20;11.89;91.49
69436;SHT31;56625;54.322;18.582;2022-10-31T07:16:50;12.58;93.07
69436;SHT31;56625;54.322;18.582;2022-10-31T07:19:17;13.07;92.57
69436;SHT31;56625;54.322;18.582;2022-10-31T07:21:44;13.33;89.94
69436;SHT31;56625;54.322;18.582;2022-10-31T07:24:10;13.57;89.62
69436;SHT31;56625;54.322;18.582;2022-10-31T07:26:36;14.07;89.20
69436;SHT31;56625;54.322;18.582;2022-10-31T07:29:03;14.15;86.06
69436;SHT31;56625;54.322;18.582;2022-10-31T07:31:29;13.82;85.52
69436;SHT31;56625;54.322;18.582;2022-10-31T07:33:56;13.54;85.75
69436;SHT31;56625;54.322;18.582;2022-10-31T07:36:22;13.32;86.29
69436;SHT31;56625;54.322;18.582;2022-10-31T07:38:49;13.15;86.49
69436;SHT31;56625;54.322;18.582;2022-10-31T07:41:15;13.04;86.92
69436;SHT31;56625;54.322;18.582;2022-10-31T07:43:42;12.99;87.21
69436;SHT31;56625;54.322;18.582;2022-10-31T07:46:08;12.98;87.35
69436;SHT31;56625;54.322;18.582;2022-10-31T07:48:35;12.97;87.49
69436;SHT31;56625;54.322;18.582;2022-10-31T07:51:01;13.00;87.60
69436;SHT31;56625;54.322;18.582;2022-10-31T07:53:27;12.99;87.62
69436;SHT31;56625;54.322;18.582;2022-10-31T07:55:54;13.00;87.69
69436;SHT31;56625;54.322;18.582;2022-10-31T07:58:20;13.01;87.72
69436;SHT31;56625;54.322;18.582;2022-10-31T08:00:47;12.99;87.84
69436;SHT31;56625;54.322;18.582;2022-10-31T08:03:15;12.98;87.96
69436;SHT31;56625;54.322;18.582;2022-10-31T08:05:44;13.00;88.15
69436;SHT31;56625;54.322;18.582;2022-10-31T08:08:12;13.12;88.40
69436;SHT31;56625;54.322;18.582;2022-10-31T08:10:40;13.20;88.16
69436;SHT31;56625;54.322;18.582;2022-10-31T08:13:08;13.25;88.08
69436;SHT31;56625;54.322;18.582;2022-10-31T08:15:37;13.28;87.91
69436;SHT31;56625;54.322;18.582;2022-10-31T08:18:11;13.26;87.78
69436;SHT31;56625;54.322;18.582;2022-10-31T08:20:43;13.28;87.77
69436;SHT31;56625;54.322;18.582;2022-10-31T08:23:10;13.28;87.78
69436;SHT31;56625;54.322;18.582;2022-10-31T08:25:38;13.30;87.71
69436;SHT31;56625;54.322;18.582;2022-10-31T08:28:06;13.28;87.69
69436;SHT31;56625;54.322;18.582;2022-10-31T08:30:35;13.31;87.76
69436;SHT31;56625;54.322;18.582;2022-10-31T08:33:04;13.34;87.75
69436;SHT31;56625;54.322;18.582;2022-10-31T08:35:40;13.41;87.75
69436;SHT31;56625;54.322;18.582;2022-10-31T08:38:08;13.45;87.58
69436;SHT31;56625;54.322;18.582;2022-10-31T08:40:39;13.48;87.43
69436;SHT31;56625;54.322;18.582;2022-10-31T08:43:06;13.49;87.32
69436;SHT31;56625;54.322;18.582;2022-10-31T08:45:39;13.45;87.22
69436;SHT31;56625;54.322;18.582;2022-10-31T08:48:08;13.44;87.34
69436;SHT31;56625;54.322;18.582;2022-10-31T08:50:38;13.45;87.31
69436;SHT31;56625;54.322;18.582;2022-10-31T08:53:07;13.41;87.22
69436;SHT31;56625;54.322;18.582;2022-10-31T08:55:41;13.45;87.48
69436;SHT31;56625;54.322;18.582;2022-10-31T08:58:14;13.55;87.46
69436;SHT31;56625;54.322;18.582;2022-10-31T09:00:44;13.61;87.31
69436;SHT31;56625;54.322;18.582;2022-10-31T09:03:14;13.64;87.17
69436;SHT31;56625;54.322;18.582;2022-10-31T09:05:44;13.62;87.17
69436;SHT31;56625;54.322;18.582;2022-10-31T09:08:13;13.67;87.35
69436;SHT31;56625;54.322;18.582;2022-10-31T09:10:42;13.73;87.40
69436;SHT31;56625;54.322;18.582;2022-10-31T09:13:14;13.76;87.22
69436;SHT31;56625;54.322;18.582;2022-10-31T09:15:44;13.77;87.12
69436;SHT31;56625;54.322;18.582;2022-10-31T09:18:16;13.78;87.14
69436;SHT31;56625;54.322;18.582;2022-10-31T09:20:46;13.79;87.18
69436;SHT31;56625;54.322;18.582;2022-10-31T09:23:15;13.79;87.15
69436;SHT31;56625;54.322;18.582;2022-10-31T09:25:48;13.82;87.22
69436;SHT31;56625;54.322;18.582;2022-10-31T09:28:20;13.83;87.10
69436;SHT31;56625;54.322;18.582;2022-10-31T09:30:50;13.80;86.92
69436;SHT31;56625;54.322;18.582;2022-10-31T09:33:19;13.77;87.03
69436;SHT31;56625;54.322;18.582;2022-10-31T09:35:47;13.80;87.24
69436;SHT31;56625;54.322;18.582;2022-10-31T09:38:14;13.84;87.23
69436;SHT31;56625;54.322;18.582;2022-10-31T09:40:47;13.87;87.21
69436;SHT31;56625;54.322;18.582;2022-10-31T09:46:25;13.90;87.18
69436;SHT31;56625;54.322;18.582;2022-10-31T09:49:35;13.94;87.23
69436;SHT31;56625;54.322;18.582;2022-10-31T09:52:32;13.95;87.20
69436;SHT31;56625;54.322;18.582;2022-10-31T09:55:04;13.96;87.24
69436;SHT31;56625;54.322;18.582;2022-10-31T09:57:41;14.00;87.33
69436;SHT31;56625;54.322;18.582;2022-10-31T10:00:16;14.01;87.30
69436;SHT31;56625;54.322;18.582;2022-10-31T10:03:33;13.99;87.35
69436;SHT31;56625;54.322;18.582;2022-10-31T10:08:43;14.06;87.41
69436;SHT31;56625;54.322;18.582;2022-10-31T10:20:05;13.98;87.37
69436;SHT31;56625;54.322;18.582;2022-10-31T10:22:54;14.00;87.43
69436;SHT31;56625;54.322;18.582;2022-10-31T10:25:49;14.05;87.37
69436;SHT31;56625;54.322;18.582;2022-10-31T10:28:35;14.12;87.30
69436;SHT31;56625;54.322;18.582;2022-10-31T10:31:11;14.12;87.08
69436;SHT31;56625;54.322;18.582;2022-10-31T10:34:01;14.12;87.19
69436;SHT31;56625;54.322;18.582;2022-10-31T10:36:49;14.08;87.15
69436;SHT31;56625;54.322;18.582;2022-10-31T10:40:16;14.02;87.30
69436;SHT31;56625;54.322;18.582;2022-10-31T10:51:59;14.04;87.85
69436;SHT31;56625;54.322;18.582;2022-10-31T10:58:16;13.99;87.92
69436;SHT31;56625;54.322;18.582;2022-10-31T11:00:43;13.99;88.13
69436;SHT31;56625;54.322;18.582;2022-10-31T11:03:13;14.00;88.20
69436;SHT31;56625;54.322;18.582;2022-10-31T11:05:55;14.03;88.26
69436;SHT31;56625;54.322;18.582;2022-10-31T11:08:28;14.07;88.26
69436;SHT31;56625;54.322;18.582;2022-10-31T11:11:34;14.13;88.30
69436;SHT31;56625;54.322;18.582;2022-10-31T11:14:05;14.20;88.29
69436;SHT31;56625;54.322;18.582;2022-10-31T11:16:45;14.28;88.18
69436;SHT31;56625;54.322;18.582;2022-10-31T11:19:35;14.28;88.04
69436;SHT31;56625;54.322;18.582;2022-10-31T11:22:20;14.28;88.17
69436;SHT31;56625;54.322;18.582;2022-10-31T11:24:50;14.28;88.11
69436;SHT31;56625;54.322;18.582;2022-10-31T11:27:20;14.29;87.99
69436;SHT31;56625;54.322;18.582;2022-10-31T11:29:49;14.32;88.05
69436;SHT31;56625;54.322;18.582;2022-10-31T11:32:20;14.38;87.90
69436;SHT31;56625;54.322;18.582;2022-10-31T11:34:51;14.33;87.23
69436;SHT31;56625;54.322;18.582;2022-10-31T11:37:24;14.28;87.35
69436;SHT31;56625;54.322;18.582;2022-10-31T11:40:02;14.30;87.44
69436;SHT31;56625;54.322;18.582;2022-10-31T11:42:37;14.34;87.40
69436;SHT31;56625;54.322;18.582;2022-10-31T11:45:13;14.40;87.27
69436;SHT31;56625;54.322;18.582;2022-10-31T11:47:53;14.41;87.16
69436;SHT31;56625;54.322;18.582;2022-10-31T11:53:03;14.40;87.10
69436;SHT31;56625;54.322;18.582;2022-10-31T11:55:39;14.37;87.03
69436;SHT31;56625;54.322;18.582;2022-10-31T11:58:19;14.32;87.04
69436;SHT31;56625;54.322;18.582;2022-10-31T12:00:50;14.26;87.12
69436;SHT31;56625;54.322;18.582;2022-10-31T12:07:58;14.17;87.58
69436;SHT31;56625;54.322;18.582;2022-10-31T12:10:45;14.18;87.67
69436;SHT31;56625;54.322;18.582;2022-10-31T12:23:28;14.14;87.22
69436;SHT31;56625;54.322;18.582;2022-10-31T12:26:44;14.13;87.21
69436;SHT31;56625;54.322;18.582;2022-10-31T12:44:43;14.02;86.97
69436;SHT31;56625;54.322;18.582;2022-10-31T12:59:37;13.96;87.52
69436;SHT31;56625;54.322;18.582;2022-10-31T13:02:19;13.98;87.56
69436;SHT31;56625;54.322;18.582;2022-10-31T13:04:51;13.99;87.56
69436;SHT31;56625;54.322;18.582;2022-10-31T13:07:31;14.02;87.58
69436;SHT31;56625;54.322;18.582;2022-10-31T13:10:26;14.05;87.51
69436;SHT31;56625;54.322;18.582;2022-10-31T13:13:30;14.06;87.50
69436;SHT31;56625;54.322;18.582;2022-10-31T13:16:30;14.04;87.49
69436;SHT31;56625;54.322;18.582;2022-10-31T13:19:12;14.01;87.51
69436;SHT31;56625;54.322;18.582;2022-10-31T13:22:00;13.98;87.56
69436;SHT31;56625;54.322;18.582;2022-10-31T13:24:52;13.95;87.56
69436;SHT31;56625;54.322;18.582;2022-10-31T13:27:29;13.93;87.63
69436;SHT31;56625;54.322;18.582;2022-10-31T13:30:18;13.91;87.69
69436;SHT31;56625;54.322;18.582;2022-10-31T13:32:52;13.90;87.75
69436;SHT31;56625;54.322;18.582;2022-10-31T13:44:28;13.79;87.77
69436;SHT31;56625;54.322;18.582;2022-10-31T13:47:18;13.81;87.72
69436;SHT31;56625;54.322;18.582;2022-10-31T13:53:11;13.82;87.80
69436;SHT31;56625;54.322;18.582;2022-10-31T13:58:33;13.78;87.88
69436;SHT31;56625;54.322;18.582;2022-10-31T14:03:37;13.73;87.86
69436;SHT31;56625;54.322;18.582;2022-10-31T14:07:27;13.72;87.90
69436;SHT31;56625;54.322;18.582;2022-10-31T14:12:31;13.71;87.95
69436;SHT31;56625;54.322;18.582;2022-10-31T14:15:13;13.68;88.00
69436;SHT31;56625;54.322;18.582;2022-10-31T14:17:46;13.66;88.09
69436;SHT31;56625;54.322;18.582;2022-10-31T14:20:22;13.63;88.20
69436;SHT31;56625;54.322;18.582;2022-10-31T14:23:09;13.60;88.39
69436;SHT31;56625;54.322;18.582;2022-10-31T14:26:19;13.58;88.46
69436;SHT31;56625;54.322;18.582;2022-10-31T14:28:52;13.55;88.52
69436;SHT31;56625;54.322;18.582;2022-10-31T14:45:52;13.51;88.67
69436;SHT31;56625;54.322;18.582;2022-10-31T14:51:38;13.51;88.62
69436;SHT31;56625;54.322;18.582;2022-10-31T14:54:11;13.51;88.61
69436;SHT31;56625;54.322;18.582;2022-10-31T14:56:52;13.52;88.62
69436;SHT31;56625;54.322;18.582;2022-10-31T14:59:26;13.54;88.60
69436;SHT31;56625;54.322;18.582;2022-10-31T15:01:59;13.55;88.60
69436;SHT31;56625;54.322;18.582;2022-10-31T15:04:37;13.53;88.63
69436;SHT31;56625;54.322;18.582;2022-10-31T15:07:10;13.54;88.65
69436;SHT31;56625;54.322;18.582;2022-10-31T15:10:06;13.57;88.64
69436;SHT31;56625;54.322;18.582;2022-10-31T15:12:48;13.58;88.60
69436;SHT31;56625;54.322;18.582;2022-10-31T15:15:17;13.62;88.65
69436;SHT31;56625;54.322;18.582;2022-10-31T15:17:55;13.74;88.87
69436;SHT31;56625;54.322;18.582;2022-10-31T15:20:30;13.85;88.54
69436;SHT31;56625;54.322;18.582;2022-10-31T15:23:10;13.97;88.26
69436;SHT31;56625;54.322;18.582;2022-10-31T15:25:42;13.97;87.77
69436;SHT31;56625;54.322;18.582;2022-10-31T15:28:13;13.92;87.69
69436;SHT31;56625;54.322;18.582;2022-10-31T15:30:49;13.90;87.74
69436;SHT31;56625;54.322;18.582;2022-10-31T15:33:31;13.91;87.91
69436;SHT31;56625;54.322;18.582;2022-10-31T15:36:20;13.95;87.77
69436;SHT31;56625;54.322;18.582;2022-10-31T15:38:55;13.93;87.60
69436;SHT31;56625;54.322;18.582;2022-10-31T15:41:24;13.88;87.60
69436;SHT31;56625;54.322;18.582;2022-10-31T15:43:57;13.84;87.67
69436;SHT31;56625;54.322;18.582;2022-10-31T15:46:33;13.81;87.81
69436;SHT31;56625;54.322;18.582;2022-10-31T15:48:59;13.77;87.94
69436;SHT31;56625;54.322;18.582;2022-10-31T15:51:30;13.75;88.08
69436;SHT31;56625;54.322;18.582;2022-10-31T15:54:00;13.73;88.10
69436;SHT31;56625;54.322;18.582;2022-10-31T15:56:28;13.70;88.20
69436;SHT31;56625;54.322;18.582;2022-10-31T15:58:58;13.69;88.26
69436;SHT31;56625;54.322;18.582;2022-10-31T16:01:31;13.67;88.41
69436;SHT31;56625;54.322;18.582;2022-10-31T16:06:51;13.68;88.64
69436;SHT31;56625;54.322;18.582;2022-10-31T16:12:21;13.75;88.47
69436;SHT31;56625;54.322;18.582;2022-10-31T16:14:50;13.79;88.43
69436;SHT31;56625;54.322;18.582;2022-10-31T16:17:20;13.86;88.47
69436;SHT31;56625;54.322;18.582;2022-10-31T16:22:27;14.02;88.21
69436;SHT31;56625;54.322;18.582;2022-10-31T16:28:02;14.22;87.76
69436;SHT31;56625;54.322;18.582;2022-10-31T16:30:45;14.20;87.29
69436;SHT31;56625;54.322;18.582;2022-10-31T16:33:23;14.11;87.17
69436;SHT31;56625;54.322;18.582;2022-10-31T16:35:53;14.10;87.60
69436;SHT31;56625;54.322;18.582;2022-10-31T16:38:44;14.23;87.96
69436;SHT31;56625;54.322;18.582;2022-10-31T16:41:10;14.37;87.72
69436;SHT31;56625;54.322;18.582;2022-10-31T16:43:36;14.39;86.93
69436;SHT31;56625;54.322;18.582;2022-10-31T16:46:03;14.34;86.80
69436;SHT31;56625;54.322;18.582;2022-10-31T16:48:30;14.27;86.84
69436;SHT31;56625;54.322;18.582;2022-10-31T16:50:56;14.28;87.18
69436;SHT31;56625;54.322;18.582;2022-10-31T16:53:22;14.32;87.19
69436;SHT31;56625;54.322;18.582;2022-10-31T16:58:31;14.38;86.93
69436;SHT31;56625;54.322;18.582;2022-10-31T17:01:00;14.30;86.70
69436;SHT31;56625;54.322;18.582;2022-10-31T17:03:31;14.24;86.97
69436;SHT31;56625;54.322;18.582;2022-10-31T17:05:58;14.23;87.10
69436;SHT31;56625;54.322;18.582;2022-10-31T17:08:25;14.27;87.26
69436;SHT31;56625;54.322;18.582;2022-10-31T17:10:52;14.32;87.17
69436;SHT31;56625;54.322;18.582;2022-10-31T17:13:23;14.41;87.35
69436;SHT31;56625;54.322;18.582;2022-10-31T17:15:54;14.53;87.07
69436;SHT31;56625;54.322;18.582;2022-10-31T17:18:24;14.56;86.51
69436;SHT31;56625;54.322;18.582;2022-10-31T17:21:14;14.50;86.32
69436;SHT31;56625;54.322;18.582;2022-10-31T17:23:48;14.40;86.33
69436;SHT31;56625;54.322;18.582;2022-10-31T17:26:16;14.33;86.64
69436;SHT31;56625;54.322;18.582;2022-10-31T17:28:43;14.28;86.68
69436;SHT31;56625;54.322;18.582;2022-10-31T17:31:13;14.20;86.79
69436;SHT31;56625;54.322;18.582;2022-10-31T17:33:46;14.21;87.15
69436;SHT31;56625;54.322;18.582;2022-10-31T17:36:12;14.24;87.08
69436;SHT31;56625;54.322;18.582;2022-10-31T17:38:39;14.21;86.95
69436;SHT31;56625;54.322;18.582;2022-10-31T17:41:05;14.17;86.93
69436;SHT31;56625;54.322;18.582;2022-10-31T17:43:37;14.12;86.91
69436;SHT31;56625;54.322;18.582;2022-10-31T17:46:04;14.05;87.05
69436;SHT31;56625;54.322;18.582;2022-10-31T17:48:32;13.99;87.27
69436;SHT31;56625;54.322;18.582;2022-10-31T17:51:01;13.95;87.36
69436;SHT31;56625;54.322;18.582;2022-10-31T17:53:31;13.98;87.79
69436;SHT31;56625;54.322;18.582;2022-10-31T17:56:03;14.03;87.61
69436;SHT31;56625;54.322;18.582;2022-10-31T17:58:33;14.01;87.41
69436;SHT31;56625;54.322;18.582;2022-10-31T18:01:12;13.96;87.47
69436;SHT31;56625;54.322;18.582;2022-10-31T18:03:41;13.93;87.50
69436;SHT31;56625;54.322;18.582;2022-10-31T18:06:08;13.88;87.65
69436;SHT31;56625;54.322;18.582;2022-10-31T18:08:37;13.85;87.82
69436;SHT31;56625;54.322;18.582;2022-10-31T18:11:06;13.94;88.23
69436;SHT31;56625;54.322;18.582;2022-10-31T18:13:36;14.05;88.12
69436;SHT31;56625;54.322;18.582;2022-10-31T18:16:22;14.10;87.78
69436;SHT31;56625;54.322;18.582;2022-10-31T18:18:53;14.06;87.48